sensor_id;sensor_type;location;lat;lon;timestamp;P1;durP1;ratioP1;P2;durP2;ratioP2
1414;SDS011;702;49.466;11.086;2022-08-25T00:02:02;14.83;;;13.13;;
1414;SDS011;702;49.466;11.086;2022-08-25T00:04:33;14.23;;;12.93;;
1414;SDS011;702;49.466;11.086;2022-08-25T00:07:01;14.50;;;12.53;;
1414;SDS011;702;49.466;11.086;2022-08-25T00:09:31;13.60;;;12.27;;
1414;SDS011;702;49.466;11.086;2022-08-25T00:12:01;14.97;;;13.53;;
1414;SDS011;702;49.466;11.086;2022-08-25T00:14:31;14.33;;;12.90;;
1414;SDS011;702;49.466;11.086;2022-08-25T00:17:03;13.43;;;12.00;;
1414;SDS011;702;49.466;11.086;2022-08-25T00:19:32;15.07;;;12.40;;
1414;SDS011;702;49.466;11.086;2022-08-25T00:22:02;13.77;;;12.50;;
1414;SDS011;702;49.466;11.086;2022-08-25T00:24:32;13.27;;;12.07;;
1414;SDS011;702;49.466;11.086;2022-08-25T00:26:59;14.00;;;12.70;;
1414;SDS011;702;49.466;11.086;2022-08-25T00:29:27;14.80;;;13.30;;
1414;SDS011;702;49.466;11.086;2022-08-25T00:31:57;14.60;;;13.20;;
1414;SDS011;702;49.466;11.086;2022-08-25T00:34:32;14.13;;;12.90;;
1414;SDS011;702;49.466;11.086;2022-08-25T00:37:02;16.40;;;14.43;;
1414;SDS011;702;49.466;11.086;2022-08-25T00:39:35;15.07;;;13.50;;
1414;SDS011;702;49.466;11.086;2022-08-25T00:42:03;15.10;;;13.70;;
1414;SDS011;702;49.466;11.086;2022-08-25T00:44:33;15.63;;;14.00;;
1414;SDS011;702;49.466;11.086;2022-08-25T00:47:01;14.03;;;12.87;;
1414;SDS011;702;49.466;11.086;2022-08-25T00:49:32;15.23;;;13.73;;
1414;SDS011;702;49.466;11.086;2022-08-25T00:52:06;15.90;;;14.30;;
1414;SDS011;702;49.466;11.086;2022-08-25T00:54:39;16.23;;;14.63;;
1414;SDS011;702;49.466;11.086;2022-08-25T00:57:13;15.30;;;13.87;;
1414;SDS011;702;49.466;11.086;2022-08-25T00:59:43;15.00;;;13.50;;
1414;SDS011;702;49.466;11.086;2022-08-25T01:02:12;15.93;;;13.73;;
1414;SDS011;702;49.466;11.086;2022-08-25T01:04:41;15.73;;;14.13;;
1414;SDS011;702;49.466;11.086;2022-08-25T01:07:10;15.87;;;14.40;;
1414;SDS011;702;49.466;11.086;2022-08-25T01:09:40;15.80;;;14.20;;
1414;SDS011;702;49.466;11.086;2022-08-25T01:12:09;16.00;;;14.60;;
1414;SDS011;702;49.466;11.086;2022-08-25T01:14:36;16.70;;;15.03;;
1414;SDS011;702;49.466;11.086;2022-08-25T01:17:04;17.70;;;14.50;;
1414;SDS011;702;49.466;11.086;2022-08-25T01:19:32;15.87;;;14.43;;
1414;SDS011;702;49.466;11.086;2022-08-25T01:22:01;16.67;;;15.07;;
1414;SDS011;702;49.466;11.086;2022-08-25T01:24:33;16.40;;;14.90;;
1414;SDS011;702;49.466;11.086;2022-08-25T01:27:05;16.40;;;14.90;;
1414;SDS011;702;49.466;11.086;2022-08-25T01:29:34;17.37;;;15.67;;
1414;SDS011;702;49.466;11.086;2022-08-25T01:32:03;15.70;;;14.20;;
1414;SDS011;702;49.466;11.086;2022-08-25T01:34:35;16.40;;;14.73;;
1414;SDS011;702;49.466;11.086;2022-08-25T01:37:07;16.03;;;14.53;;
1414;SDS011;702;49.466;11.086;2022-08-25T01:39:36;16.13;;;14.60;;
1414;SDS011;702;49.466;11.086;2022-08-25T01:42:12;16.83;;;15.23;;
1414;SDS011;702;49.466;11.086;2022-08-25T01:44:49;17.03;;;15.23;;
1414;SDS011;702;49.466;11.086;2022-08-25T01:47:17;17.00;;;15.47;;
1414;SDS011;702;49.466;11.086;2022-08-25T01:49:48;17.40;;;15.80;;
1414;SDS011;702;49.466;11.086;2022-08-25T01:52:22;20.23;;;16.63;;
1414;SDS011;702;49.466;11.086;2022-08-25T01:54:53;16.53;;;14.73;;
1414;SDS011;702;49.466;11.086;2022-08-25T01:57:22;18.23;;;15.50;;
1414;SDS011;702;49.466;11.086;2022-08-25T01:59:49;17.90;;;16.20;;
1414;SDS011;702;49.466;11.086;2022-08-25T02:02:17;16.53;;;14.90;;
1414;SDS011;702;49.466;11.086;2022-08-25T02:04:47;18.60;;;16.80;;
1414;SDS011;702;49.466;11.086;2022-08-25T02:07:14;17.30;;;15.60;;
1414;SDS011;702;49.466;11.086;2022-08-25T02:09:44;17.30;;;15.60;;
1414;SDS011;702;49.466;11.086;2022-08-25T02:12:11;17.50;;;15.80;;
1414;SDS011;702;49.466;11.086;2022-08-25T02:14:40;17.67;;;15.97;;
1414;SDS011;702;49.466;11.086;2022-08-25T02:17:08;19.17;;;17.17;;
1414;SDS011;702;49.466;11.086;2022-08-25T02:19:36;18.70;;;16.80;;
1414;SDS011;702;49.466;11.086;2022-08-25T02:22:03;17.97;;;16.37;;
1414;SDS011;702;49.466;11.086;2022-08-25T02:24:32;18.97;;;17.07;;
1414;SDS011;702;49.466;11.086;2022-08-25T02:27:00;17.70;;;16.00;;
1414;SDS011;702;49.466;11.086;2022-08-25T02:29:29;18.23;;;16.53;;
1414;SDS011;702;49.466;11.086;2022-08-25T02:31:56;17.70;;;16.00;;
1414;SDS011;702;49.466;11.086;2022-08-25T02:34:25;18.93;;;17.03;;
1414;SDS011;702;49.466;11.086;2022-08-25T02:36:52;17.50;;;15.90;;
1414;SDS011;702;49.466;11.086;2022-08-25T02:39:19;17.27;;;15.57;;
1414;SDS011;702;49.466;11.086;2022-08-25T02:41:48;19.60;;;17.50;;
1414;SDS011;702;49.466;11.086;2022-08-25T02:44:17;18.50;;;16.53;;
1414;SDS011;702;49.466;11.086;2022-08-25T02:46:44;20.03;;;18.03;;
1414;SDS011;702;49.466;11.086;2022-08-25T02:49:12;18.93;;;17.03;;
1414;SDS011;702;49.466;11.086;2022-08-25T02:51:39;18.63;;;16.67;;
1414;SDS011;702;49.466;11.086;2022-08-25T02:54:07;19.57;;;17.67;;
1414;SDS011;702;49.466;11.086;2022-08-25T02:56:35;19.60;;;17.50;;
1414;SDS011;702;49.466;11.086;2022-08-25T02:59:02;18.63;;;16.80;;
1414;SDS011;702;49.466;11.086;2022-08-25T03:01:32;19.80;;;17.80;;
1414;SDS011;702;49.466;11.086;2022-08-25T03:03:59;18.90;;;17.00;;
1414;SDS011;702;49.466;11.086;2022-08-25T03:06:28;19.83;;;18.03;;
1414;SDS011;702;49.466;11.086;2022-08-25T03:08:56;19.97;;;18.00;;
1414;SDS011;702;49.466;11.086;2022-08-25T03:11:23;21.30;;;19.30;;
1414;SDS011;702;49.466;11.086;2022-08-25T03:13:51;19.53;;;17.63;;
1414;SDS011;702;49.466;11.086;2022-08-25T03:16:21;21.57;;;19.37;;
1414;SDS011;702;49.466;11.086;2022-08-25T03:18:50;21.70;;;19.50;;
1414;SDS011;702;49.466;11.086;2022-08-25T03:21:17;20.93;;;18.83;;
1414;SDS011;702;49.466;11.086;2022-08-25T03:23:46;19.57;;;17.60;;
1414;SDS011;702;49.466;11.086;2022-08-25T03:26:13;21.80;;;18.33;;
1414;SDS011;702;49.466;11.086;2022-08-25T03:28:59;19.73;;;17.83;;
1414;SDS011;702;49.466;11.086;2022-08-25T03:31:29;20.13;;;18.23;;
1414;SDS011;702;49.466;11.086;2022-08-25T03:33:59;21.63;;;19.47;;
1414;SDS011;702;49.466;11.086;2022-08-25T03:36:27;21.53;;;19.30;;
1414;SDS011;702;49.466;11.086;2022-08-25T03:38:55;19.70;;;17.83;;
1414;SDS011;702;49.466;11.086;2022-08-25T03:41:24;21.57;;;18.80;;
1414;SDS011;702;49.466;11.086;2022-08-25T03:43:53;22.10;;;19.77;;
1414;SDS011;702;49.466;11.086;2022-08-25T03:46:23;20.60;;;18.60;;
1414;SDS011;702;49.466;11.086;2022-08-25T03:48:53;20.93;;;18.63;;
1414;SDS011;702;49.466;11.086;2022-08-25T03:51:26;20.67;;;18.20;;
1414;SDS011;702;49.466;11.086;2022-08-25T03:53:59;20.73;;;18.63;;
1414;SDS011;702;49.466;11.086;2022-08-25T03:56:28;21.47;;;19.37;;
1414;SDS011;702;49.466;11.086;2022-08-25T03:58:56;21.37;;;19.27;;
1414;SDS011;702;49.466;11.086;2022-08-25T04:01:24;24.57;;;19.80;;
1414;SDS011;702;49.466;11.086;2022-08-25T04:03:52;21.33;;;19.20;;
1414;SDS011;702;49.466;11.086;2022-08-25T04:06:24;22.50;;;20.13;;
1414;SDS011;702;49.466;11.086;2022-08-25T04:08:51;22.93;;;20.53;;
1414;SDS011;702;49.466;11.086;2022-08-25T04:11:21;21.33;;;19.23;;
1414;SDS011;702;49.466;11.086;2022-08-25T04:13:48;22.23;;;20.07;;
1414;SDS011;702;49.466;11.086;2022-08-25T04:16:18;22.63;;;20.33;;
1414;SDS011;702;49.466;11.086;2022-08-25T04:18:48;23.90;;;21.50;;
1414;SDS011;702;49.466;11.086;2022-08-25T04:21:17;23.67;;;19.87;;
1414;SDS011;702;49.466;11.086;2022-08-25T04:23:48;22.23;;;18.80;;
1414;SDS011;702;49.466;11.086;2022-08-25T04:26:18;22.57;;;19.80;;
1414;SDS011;702;49.466;11.086;2022-08-25T04:28:48;20.73;;;18.50;;
1414;SDS011;702;49.466;11.086;2022-08-25T04:31:17;21.50;;;19.30;;
1414;SDS011;702;49.466;11.086;2022-08-25T04:33:46;20.70;;;18.63;;
1414;SDS011;702;49.466;11.086;2022-08-25T04:36:15;22.60;;;20.43;;
1414;SDS011;702;49.466;11.086;2022-08-25T04:38:44;22.50;;;19.83;;
1414;SDS011;702;49.466;11.086;2022-08-25T04:41:16;22.63;;;20.30;;
1414;SDS011;702;49.466;11.086;2022-08-25T04:43:46;22.83;;;20.13;;
1414;SDS011;702;49.466;11.086;2022-08-25T04:46:14;21.97;;;19.23;;
1414;SDS011;702;49.466;11.086;2022-08-25T04:48:43;21.13;;;18.83;;
1414;SDS011;702;49.466;11.086;2022-08-25T04:51:13;20.60;;;18.63;;
1414;SDS011;702;49.466;11.086;2022-08-25T04:53:42;21.80;;;19.43;;
1414;SDS011;702;49.466;11.086;2022-08-25T04:56:12;20.00;;;18.13;;
1414;SDS011;702;49.466;11.086;2022-08-25T04:58:41;18.97;;;17.00;;
1414;SDS011;702;49.466;11.086;2022-08-25T05:01:08;21.23;;;19.23;;
1414;SDS011;702;49.466;11.086;2022-08-25T05:03:40;19.87;;;17.97;;
1414;SDS011;702;49.466;11.086;2022-08-25T05:06:09;19.57;;;17.77;;
1414;SDS011;702;49.466;11.086;2022-08-25T05:08:37;19.33;;;17.43;;
1414;SDS011;702;49.466;11.086;2022-08-25T05:11:05;20.63;;;16.00;;
1414;SDS011;702;49.466;11.086;2022-08-25T05:13:40;18.20;;;16.30;;
1414;SDS011;702;49.466;11.086;2022-08-25T05:16:09;19.57;;;15.13;;
1414;SDS011;702;49.466;11.086;2022-08-25T05:18:37;20.03;;;16.43;;
1414;SDS011;702;49.466;11.086;2022-08-25T05:21:07;18.03;;;16.13;;
1414;SDS011;702;49.466;11.086;2022-08-25T05:23:37;17.73;;;15.97;;
1414;SDS011;702;49.466;11.086;2022-08-25T05:26:07;17.10;;;15.43;;
1414;SDS011;702;49.466;11.086;2022-08-25T05:28:39;17.67;;;16.00;;
1414;SDS011;702;49.466;11.086;2022-08-25T05:31:07;17.83;;;16.03;;
1414;SDS011;702;49.466;11.086;2022-08-25T05:33:38;16.87;;;15.37;;
1414;SDS011;702;49.466;11.086;2022-08-25T05:36:06;16.50;;;14.80;;
1414;SDS011;702;49.466;11.086;2022-08-25T05:38:37;17.77;;;15.97;;
1414;SDS011;702;49.466;11.086;2022-08-25T05:41:07;17.73;;;15.90;;
1414;SDS011;702;49.466;11.086;2022-08-25T05:43:40;17.73;;;16.03;;
1414;SDS011;702;49.466;11.086;2022-08-25T05:46:08;18.60;;;16.70;;
1414;SDS011;702;49.466;11.086;2022-08-25T05:48:37;19.43;;;17.73;;
1414;SDS011;702;49.466;11.086;2022-08-25T05:51:06;17.83;;;15.60;;
1414;SDS011;702;49.466;11.086;2022-08-25T05:53:35;21.23;;;17.20;;
1414;SDS011;702;49.466;11.086;2022-08-25T05:56:05;18.50;;;16.70;;
1414;SDS011;702;49.466;11.086;2022-08-25T05:58:33;19.33;;;16.20;;
1414;SDS011;702;49.466;11.086;2022-08-25T06:01:02;17.93;;;16.33;;
1414;SDS011;702;49.466;11.086;2022-08-25T06:03:45;18.37;;;16.40;;
1414;SDS011;702;49.466;11.086;2022-08-25T06:06:13;19.33;;;17.20;;
1414;SDS011;702;49.466;11.086;2022-08-25T06:08:40;20.60;;;17.73;;
1414;SDS011;702;49.466;11.086;2022-08-25T06:11:09;20.07;;;18.03;;
1414;SDS011;702;49.466;11.086;2022-08-25T06:13:36;19.07;;;17.17;;
1414;SDS011;702;49.466;11.086;2022-08-25T06:16:06;21.80;;;19.60;;
1414;SDS011;702;49.466;11.086;2022-08-25T06:18:33;19.03;;;17.33;;
1414;SDS011;702;49.466;11.086;2022-08-25T06:21:05;18.63;;;16.80;;
1414;SDS011;702;49.466;11.086;2022-08-25T06:23:36;18.97;;;17.03;;
1414;SDS011;702;49.466;11.086;2022-08-25T06:26:04;18.30;;;16.50;;
1414;SDS011;702;49.466;11.086;2022-08-25T06:28:33;18.53;;;16.83;;
1414;SDS011;702;49.466;11.086;2022-08-25T06:31:00;19.40;;;17.60;;
1414;SDS011;702;49.466;11.086;2022-08-25T06:33:29;19.10;;;17.30;;
1414;SDS011;702;49.466;11.086;2022-08-25T06:35:57;19.70;;;17.80;;
1414;SDS011;702;49.466;11.086;2022-08-25T06:38:25;16.83;;;14.63;;
1414;SDS011;702;49.466;11.086;2022-08-25T06:40:53;17.67;;;15.97;;
1414;SDS011;702;49.466;11.086;2022-08-25T06:43:22;17.37;;;15.87;;
1414;SDS011;702;49.466;11.086;2022-08-25T06:45:49;17.57;;;15.97;;
1414;SDS011;702;49.466;11.086;2022-08-25T06:48:17;19.23;;;16.10;;
1414;SDS011;702;49.466;11.086;2022-08-25T06:50:46;17.83;;;16.10;;
1414;SDS011;702;49.466;11.086;2022-08-25T06:53:13;17.17;;;15.47;;
1414;SDS011;702;49.466;11.086;2022-08-25T06:55:41;19.80;;;16.33;;
1414;SDS011;702;49.466;11.086;2022-08-25T06:58:08;17.83;;;16.13;;
1414;SDS011;702;49.466;11.086;2022-08-25T07:00:35;16.13;;;14.73;;
1414;SDS011;702;49.466;11.086;2022-08-25T07:03:03;18.17;;;16.47;;
1414;SDS011;702;49.466;11.086;2022-08-25T07:05:31;17.20;;;14.90;;
1414;SDS011;702;49.466;11.086;2022-08-25T07:07:59;17.20;;;15.40;;
1414;SDS011;702;49.466;11.086;2022-08-25T07:10:27;17.37;;;15.83;;
1414;SDS011;702;49.466;11.086;2022-08-25T07:12:54;16.80;;;15.00;;
1414;SDS011;702;49.466;11.086;2022-08-25T07:15:23;18.43;;;15.87;;
1414;SDS011;702;49.466;11.086;2022-08-25T07:17:50;16.47;;;15.07;;
1414;SDS011;702;49.466;11.086;2022-08-25T07:20:18;14.40;;;13.20;;
1414;SDS011;702;49.466;11.086;2022-08-25T07:22:47;15.80;;;14.20;;
1414;SDS011;702;49.466;11.086;2022-08-25T07:25:17;15.90;;;14.40;;
1414;SDS011;702;49.466;11.086;2022-08-25T07:27:44;14.70;;;13.20;;
1414;SDS011;702;49.466;11.086;2022-08-25T07:30:13;16.03;;;14.50;;
1414;SDS011;702;49.466;11.086;2022-08-25T07:32:42;15.73;;;14.10;;
1414;SDS011;702;49.466;11.086;2022-08-25T07:35:09;14.20;;;12.90;;
1414;SDS011;702;49.466;11.086;2022-08-25T07:37:45;15.13;;;13.83;;
1414;SDS011;702;49.466;11.086;2022-08-25T07:40:16;15.47;;;14.07;;
1414;SDS011;702;49.466;11.086;2022-08-25T07:42:47;16.80;;;15.00;;
1414;SDS011;702;49.466;11.086;2022-08-25T07:45:16;14.00;;;12.80;;
1414;SDS011;702;49.466;11.086;2022-08-25T07:47:45;14.57;;;13.37;;
1414;SDS011;702;49.466;11.086;2022-08-25T07:50:13;16.07;;;14.57;;
1414;SDS011;702;49.466;11.086;2022-08-25T07:52:41;16.30;;;14.40;;
1414;SDS011;702;49.466;11.086;2022-08-25T07:55:08;15.57;;;14.13;;
1414;SDS011;702;49.466;11.086;2022-08-25T07:57:39;13.43;;;12.10;;
1414;SDS011;702;49.466;11.086;2022-08-25T08:00:08;15.20;;;13.90;;
1414;SDS011;702;49.466;11.086;2022-08-25T08:02:38;14.73;;;13.53;;
1414;SDS011;702;49.466;11.086;2022-08-25T08:05:06;14.70;;;13.40;;
1414;SDS011;702;49.466;11.086;2022-08-25T08:07:36;13.73;;;12.47;;
1414;SDS011;702;49.466;11.086;2022-08-25T08:10:03;16.20;;;13.47;;
1414;SDS011;702;49.466;11.086;2022-08-25T08:12:34;14.53;;;13.40;;
1414;SDS011;702;49.466;11.086;2022-08-25T08:15:03;13.93;;;12.27;;
1414;SDS011;702;49.466;11.086;2022-08-25T08:17:33;13.13;;;11.50;;
1414;SDS011;702;49.466;11.086;2022-08-25T08:20:00;13.63;;;12.43;;
1414;SDS011;702;49.466;11.086;2022-08-25T08:22:30;13.27;;;12.07;;
1414;SDS011;702;49.466;11.086;2022-08-25T08:24:59;11.97;;;10.97;;
1414;SDS011;702;49.466;11.086;2022-08-25T08:27:27;11.07;;;10.17;;
1414;SDS011;702;49.466;11.086;2022-08-25T08:29:54;12.53;;;11.53;;
1414;SDS011;702;49.466;11.086;2022-08-25T08:32:23;12.83;;;10.87;;
1414;SDS011;702;49.466;11.086;2022-08-25T08:34:51;12.70;;;11.60;;
1414;SDS011;702;49.466;11.086;2022-08-25T08:37:18;12.67;;;11.57;;
1414;SDS011;702;49.466;11.086;2022-08-25T08:39:47;11.87;;;10.73;;
1414;SDS011;702;49.466;11.086;2022-08-25T08:42:18;13.53;;;10.60;;
1414;SDS011;702;49.466;11.086;2022-08-25T08:45:05;12.20;;;11.00;;
1414;SDS011;702;49.466;11.086;2022-08-25T08:51:00;12.60;;;11.50;;
1414;SDS011;702;49.466;11.086;2022-08-25T08:53:42;12.17;;;10.60;;
1414;SDS011;702;49.466;11.086;2022-08-25T08:56:15;13.30;;;12.10;;
1414;SDS011;702;49.466;11.086;2022-08-25T08:58:49;12.40;;;11.33;;
1414;SDS011;702;49.466;11.086;2022-08-25T09:01:23;12.60;;;11.60;;
1414;SDS011;702;49.466;11.086;2022-08-25T09:03:57;12.53;;;11.43;;
1414;SDS011;702;49.466;11.086;2022-08-25T09:06:32;12.53;;;11.40;;
1414;SDS011;702;49.466;11.086;2022-08-25T09:09:06;10.67;;;9.87;;
1414;SDS011;702;49.466;11.086;2022-08-25T09:11:43;11.77;;;10.63;;
1414;SDS011;702;49.466;11.086;2022-08-25T09:14:24;9.80;;;9.00;;
1414;SDS011;702;49.466;11.086;2022-08-25T09:17:08;11.00;;;10.20;;
1414;SDS011;702;49.466;11.086;2022-08-25T09:19:48;10.40;;;9.60;;
1414;SDS011;702;49.466;11.086;2022-08-25T09:22:38;9.70;;;8.97;;
1414;SDS011;702;49.466;11.086;2022-08-25T09:25:19;11.07;;;10.17;;
1414;SDS011;702;49.466;11.086;2022-08-25T09:27:57;11.53;;;10.40;;
1414;SDS011;702;49.466;11.086;2022-08-25T09:30:38;13.10;;;11.70;;
1414;SDS011;702;49.466;11.086;2022-08-25T09:33:11;11.33;;;10.30;;
1414;SDS011;702;49.466;11.086;2022-08-25T09:35:47;10.33;;;9.53;;
1414;SDS011;702;49.466;11.086;2022-08-25T09:38:16;10.93;;;10.03;;
1414;SDS011;702;49.466;11.086;2022-08-25T09:40:45;10.80;;;9.13;;
1414;SDS011;702;49.466;11.086;2022-08-25T09:43:19;10.87;;;9.97;;
1414;SDS011;702;49.466;11.086;2022-08-25T09:45:54;10.70;;;9.67;;
1414;SDS011;702;49.466;11.086;2022-08-25T09:48:27;10.60;;;9.80;;
1414;SDS011;702;49.466;11.086;2022-08-25T09:51:11;11.70;;;10.70;;
1414;SDS011;702;49.466;11.086;2022-08-25T09:53:48;10.53;;;9.70;;
1414;SDS011;702;49.466;11.086;2022-08-25T09:56:21;11.80;;;10.80;;
1414;SDS011;702;49.466;11.086;2022-08-25T09:58:52;11.37;;;10.27;;
1414;SDS011;702;49.466;11.086;2022-08-25T10:01:21;11.10;;;10.20;;
1414;SDS011;702;49.466;11.086;2022-08-25T10:03:54;10.90;;;10.00;;
1414;SDS011;702;49.466;11.086;2022-08-25T10:06:26;12.23;;;11.20;;
1414;SDS011;702;49.466;11.086;2022-08-25T10:09:02;11.93;;;10.93;;
1414;SDS011;702;49.466;11.086;2022-08-25T10:11:34;11.87;;;10.93;;
1414;SDS011;702;49.466;11.086;2022-08-25T10:17:10;12.03;;;11.03;;
1414;SDS011;702;49.466;11.086;2022-08-25T10:19:41;11.37;;;10.37;;
1414;SDS011;702;49.466;11.086;2022-08-25T10:22:19;11.40;;;10.30;;
1414;SDS011;702;49.466;11.086;2022-08-25T10:24:49;12.10;;;11.20;;
1414;SDS011;702;49.466;11.086;2022-08-25T10:27:21;11.63;;;10.63;;
1414;SDS011;702;49.466;11.086;2022-08-25T10:30:02;10.83;;;9.97;;
1414;SDS011;702;49.466;11.086;2022-08-25T10:32:43;11.23;;;10.27;;
1414;SDS011;702;49.466;11.086;2022-08-25T10:35:25;10.73;;;9.80;;
1414;SDS011;702;49.466;11.086;2022-08-25T10:38:03;12.37;;;11.23;;
1414;SDS011;702;49.466;11.086;2022-08-25T10:40:40;11.73;;;10.70;;
1414;SDS011;702;49.466;11.086;2022-08-25T10:43:18;9.77;;;8.93;;
1414;SDS011;702;49.466;11.086;2022-08-25T10:45:57;11.23;;;10.43;;
1414;SDS011;702;49.466;11.086;2022-08-25T10:48:45;11.10;;;10.20;;
1414;SDS011;702;49.466;11.086;2022-08-25T10:54:26;10.93;;;10.07;;
1414;SDS011;702;49.466;11.086;2022-08-25T10:57:11;11.27;;;10.27;;
1414;SDS011;702;49.466;11.086;2022-08-25T10:59:50;10.63;;;9.73;;
1414;SDS011;702;49.466;11.086;2022-08-25T11:02:50;11.77;;;10.87;;
1414;SDS011;702;49.466;11.086;2022-08-25T11:05:37;11.40;;;10.27;;
1414;SDS011;702;49.466;11.086;2022-08-25T11:08:09;10.53;;;9.67;;
1414;SDS011;702;49.466;11.086;2022-08-25T11:10:46;10.43;;;9.63;;
1414;SDS011;702;49.466;11.086;2022-08-25T11:13:21;11.60;;;10.50;;
1414;SDS011;702;49.466;11.086;2022-08-25T11:15:57;10.27;;;9.47;;
1414;SDS011;702;49.466;11.086;2022-08-25T11:18:29;10.57;;;9.73;;
1414;SDS011;702;49.466;11.086;2022-08-25T11:21:00;11.47;;;10.47;;
1414;SDS011;702;49.466;11.086;2022-08-25T11:23:34;12.47;;;11.17;;
1414;SDS011;702;49.466;11.086;2022-08-25T11:26:08;10.90;;;10.00;;
1414;SDS011;702;49.466;11.086;2022-08-25T11:28:42;11.67;;;10.67;;
1414;SDS011;702;49.466;11.086;2022-08-25T11:31:20;10.60;;;9.80;;
1414;SDS011;702;49.466;11.086;2022-08-25T11:33:49;9.67;;;8.97;;
1414;SDS011;702;49.466;11.086;2022-08-25T11:36:19;10.80;;;9.73;;
1414;SDS011;702;49.466;11.086;2022-08-25T11:38:56;10.23;;;9.50;;
1414;SDS011;702;49.466;11.086;2022-08-25T11:41:43;11.07;;;10.17;;
1414;SDS011;702;49.466;11.086;2022-08-25T11:44:29;11.33;;;10.37;;
1414;SDS011;702;49.466;11.086;2022-08-25T11:47:19;11.10;;;10.00;;
1414;SDS011;702;49.466;11.086;2022-08-25T11:50:23;10.83;;;9.93;;
1414;SDS011;702;49.466;11.086;2022-08-25T11:52:59;10.57;;;9.67;;
1414;SDS011;702;49.466;11.086;2022-08-25T11:55:45;11.37;;;10.47;;
1414;SDS011;702;49.466;11.086;2022-08-25T11:58:29;10.80;;;9.77;;
1414;SDS011;702;49.466;11.086;2022-08-25T12:01:08;10.63;;;9.73;;
1414;SDS011;702;49.466;11.086;2022-08-25T12:03:49;11.37;;;10.37;;
1414;SDS011;702;49.466;11.086;2022-08-25T12:06:23;10.67;;;9.57;;
1414;SDS011;702;49.466;11.086;2022-08-25T12:11:49;10.70;;;9.90;;
1414;SDS011;702;49.466;11.086;2022-08-25T12:14:41;11.43;;;8.53;;
1414;SDS011;702;49.466;11.086;2022-08-25T12:17:17;10.23;;;8.60;;
1414;SDS011;702;49.466;11.086;2022-08-25T12:19:52;9.67;;;8.87;;
1414;SDS011;702;49.466;11.086;2022-08-25T12:25:30;10.40;;;8.83;;
1414;SDS011;702;49.466;11.086;2022-08-25T12:28:34;9.33;;;8.50;;
1414;SDS011;702;49.466;11.086;2022-08-25T12:31:23;9.00;;;8.20;;
1414;SDS011;702;49.466;11.086;2022-08-25T12:34:16;9.27;;;8.60;;
1414;SDS011;702;49.466;11.086;2022-08-25T12:36:57;9.07;;;8.13;;
1414;SDS011;702;49.466;11.086;2022-08-25T12:39:31;10.70;;;9.70;;
1414;SDS011;702;49.466;11.086;2022-08-25T12:42:02;8.70;;;8.00;;
1414;SDS011;702;49.466;11.086;2022-08-25T12:44:33;9.53;;;8.70;;
1414;SDS011;702;49.466;11.086;2022-08-25T12:47:24;9.67;;;8.67;;
1414;SDS011;702;49.466;11.086;2022-08-25T12:53:06;8.87;;;8.07;;
1414;SDS011;702;49.466;11.086;2022-08-25T12:55:39;10.07;;;8.93;;
1414;SDS011;702;49.466;11.086;2022-08-25T12:58:11;10.30;;;9.30;;
1414;SDS011;702;49.466;11.086;2022-08-25T13:00:46;9.40;;;8.70;;
1414;SDS011;702;49.466;11.086;2022-08-25T13:06:59;10.13;;;9.23;;
1414;SDS011;702;49.466;11.086;2022-08-25T13:12:44;10.80;;;9.70;;
1414;SDS011;702;49.466;11.086;2022-08-25T13:15:24;9.83;;;9.10;;
1414;SDS011;702;49.466;11.086;2022-08-25T13:18:13;10.00;;;9.00;;
1414;SDS011;702;49.466;11.086;2022-08-25T13:20:47;11.70;;;10.60;;
1414;SDS011;702;49.466;11.086;2022-08-25T13:23:20;10.40;;;9.30;;
1414;SDS011;702;49.466;11.086;2022-08-25T13:25:53;9.37;;;8.57;;
1414;SDS011;702;49.466;11.086;2022-08-25T13:28:23;10.00;;;9.10;;
1414;SDS011;702;49.466;11.086;2022-08-25T13:31:03;10.40;;;9.50;;
1414;SDS011;702;49.466;11.086;2022-08-25T13:33:35;10.10;;;9.30;;
1414;SDS011;702;49.466;11.086;2022-08-25T13:36:04;9.43;;;8.63;;
1414;SDS011;702;49.466;11.086;2022-08-25T13:38:50;10.10;;;9.00;;
1414;SDS011;702;49.466;11.086;2022-08-25T13:41:18;10.90;;;10.00;;
1414;SDS011;702;49.466;11.086;2022-08-25T13:43:50;9.77;;;8.83;;
1414;SDS011;702;49.466;11.086;2022-08-25T13:46:20;9.00;;;8.20;;
1414;SDS011;702;49.466;11.086;2022-08-25T13:48:49;9.10;;;8.40;;
1414;SDS011;702;49.466;11.086;2022-08-25T13:51:32;9.50;;;8.70;;
1414;SDS011;702;49.466;11.086;2022-08-25T13:54:02;9.10;;;8.37;;
1414;SDS011;702;49.466;11.086;2022-08-25T13:56:33;8.57;;;7.77;;
1414;SDS011;702;49.466;11.086;2022-08-25T13:59:04;9.30;;;8.20;;
1414;SDS011;702;49.466;11.086;2022-08-25T14:01:46;9.43;;;8.43;;
1414;SDS011;702;49.466;11.086;2022-08-25T14:04:21;8.77;;;7.87;;
1414;SDS011;702;49.466;11.086;2022-08-25T14:07:22;9.07;;;7.53;;
1414;SDS011;702;49.466;11.086;2022-08-25T14:09:55;9.33;;;8.27;;
1414;SDS011;702;49.466;11.086;2022-08-25T14:12:32;8.23;;;7.53;;
1414;SDS011;702;49.466;11.086;2022-08-25T14:15:08;8.43;;;7.60;;
1414;SDS011;702;49.466;11.086;2022-08-25T14:17:59;7.23;;;6.67;;
1414;SDS011;702;49.466;11.086;2022-08-25T14:20:29;8.23;;;7.37;;
1414;SDS011;702;49.466;11.086;2022-08-25T14:23:01;8.10;;;7.03;;
1414;SDS011;702;49.466;11.086;2022-08-25T14:25:32;8.27;;;7.57;;
1414;SDS011;702;49.466;11.086;2022-08-25T14:28:03;8.03;;;7.33;;
1414;SDS011;702;49.466;11.086;2022-08-25T14:30:35;7.73;;;7.13;;
1414;SDS011;702;49.466;11.086;2022-08-25T14:33:08;9.30;;;7.87;;
1414;SDS011;702;49.466;11.086;2022-08-25T14:35:36;9.43;;;7.53;;
1414;SDS011;702;49.466;11.086;2022-08-25T14:38:06;8.13;;;7.43;;
1414;SDS011;702;49.466;11.086;2022-08-25T14:40:36;7.20;;;6.60;;
1414;SDS011;702;49.466;11.086;2022-08-25T14:43:04;7.43;;;6.70;;
1414;SDS011;702;49.466;11.086;2022-08-25T14:45:33;8.40;;;7.50;;
1414;SDS011;702;49.466;11.086;2022-08-25T14:48:03;7.20;;;6.50;;
1414;SDS011;702;49.466;11.086;2022-08-25T14:50:35;8.47;;;6.67;;
1414;SDS011;702;49.466;11.086;2022-08-25T14:53:04;13.60;;;6.83;;
1414;SDS011;702;49.466;11.086;2022-08-25T14:55:31;9.67;;;7.47;;
1414;SDS011;702;49.466;11.086;2022-08-25T14:57:59;10.70;;;7.27;;
1414;SDS011;702;49.466;11.086;2022-08-25T15:00:26;7.90;;;7.20;;
1414;SDS011;702;49.466;11.086;2022-08-25T15:02:54;11.17;;;7.10;;
1414;SDS011;702;49.466;11.086;2022-08-25T15:05:23;7.80;;;7.00;;
1414;SDS011;702;49.466;11.086;2022-08-25T15:07:54;8.53;;;6.23;;
1414;SDS011;702;49.466;11.086;2022-08-25T15:10:40;8.80;;;7.00;;
1414;SDS011;702;49.466;11.086;2022-08-25T15:13:08;10.73;;;6.60;;
1414;SDS011;702;49.466;11.086;2022-08-25T15:15:37;7.77;;;6.97;;
1414;SDS011;702;49.466;11.086;2022-08-25T15:18:09;8.03;;;7.23;;
1414;SDS011;702;49.466;11.086;2022-08-25T15:20:36;7.37;;;6.67;;
1414;SDS011;702;49.466;11.086;2022-08-25T15:23:04;14.00;;;7.03;;
1414;SDS011;702;49.466;11.086;2022-08-25T15:25:34;7.80;;;7.10;;
1414;SDS011;702;49.466;11.086;2022-08-25T15:28:03;8.40;;;7.70;;
1414;SDS011;702;49.466;11.086;2022-08-25T15:30:34;9.33;;;8.40;;
1414;SDS011;702;49.466;11.086;2022-08-25T15:33:01;8.23;;;7.60;;
1414;SDS011;702;49.466;11.086;2022-08-25T15:35:30;8.70;;;8.03;;
1414;SDS011;702;49.466;11.086;2022-08-25T15:37:57;8.40;;;7.70;;
1414;SDS011;702;49.466;11.086;2022-08-25T15:40:25;9.27;;;8.40;;
1414;SDS011;702;49.466;11.086;2022-08-25T15:42:54;9.00;;;8.20;;
1414;SDS011;702;49.466;11.086;2022-08-25T15:45:22;8.10;;;7.40;;
1414;SDS011;702;49.466;11.086;2022-08-25T15:47:51;8.80;;;7.97;;